Time;durP1;ratioP1;P1;durP2;ratioP2;P2;SDS_P1;SDS_P2;PMS_P1;PMS_P2;Temp;Humidity;BMP_temperature;BMP_pressure;BME280_temperature;BME280_humidity;BME280_pressure;Samples;Min_cycle;Max_cycle;Signal;HPM_P1;HPM_P2
2023/08/18 01:22:53;;;;;;;1999.90;999.90;;;21.80;99.90;;;;;;5067953;28;20183;-93
2023/08/18 01:25:19;;;;;;;1999.90;999.90;;;21.50;99.90;;;;;;5070065;28;20191;-94
2023/08/18 01:27:45;;;;;;;1999.90;999.90;;;21.40;99.90;;;;;;5086542;28;20213;-94
2023/08/18 01:30:11;;;;;;;1999.90;999.90;;;21.30;99.90;;;;;;5085313;28;20233;-94
2023/08/18 01:32:44;;;;;;;1999.90;999.90;;;21.40;99.90;;;;;;5085665;28;20222;-93
2023/08/18 01:35:12;;;;;;;1999.90;999.90;;;21.50;99.90;;;;;;5066892;28;20215;-93
2023/08/18 01:37:38;;;;;;;1999.90;999.90;;;21.40;99.90;;;;;;5064539;28;20199;-94
2023/08/18 01:40:07;;;;;;;1999.90;999.90;;;21.30;99.90;;;;;;5065563;28;20223;-94
2023/08/18 01:42:33;;;;;;;1999.90;999.90;;;21.30;99.90;;;;;;5065607;28;20168;-91
2023/08/18 01:45:02;;;;;;;1999.90;999.90;;;21.20;99.90;;;;;;5064926;28;20184;-92
2023/08/18 01:47:28;;;;;;;1999.90;999.90;;;21.30;99.90;;;;;;5064947;28;20168;-94
2023/08/18 01:49:55;;;;;;;1999.90;999.90;;;21.40;99.90;;;;;;5064495;28;20692;-93
2023/08/18 01:52:20;;;;;;;1999.90;999.90;;;21.40;99.90;;;;;;5064283;28;20168;-94
2023/08/18 01:54:50;;;;;;;1999.90;999.90;;;21.20;99.90;;;;;;5063071;28;20238;-91
2023/08/18 02:04:50;;;;;;;1999.90;999.90;;;21.30;99.90;;;;;;5066575;28;20250;-93
2023/08/18 02:07:15;;;;;;;1999.90;999.90;;;21.40;99.90;;;;;;5056873;28;20173;-94
2023/08/18 02:16:26;;;;;;;1999.90;999.90;;;21.10;99.90;;;;;;5064271;28;20222;-93
2023/08/18 02:18:52;;;;;;;1999.90;999.90;;;21.20;99.90;;;;;;5063378;28;20204;-94
2023/08/18 02:21:18;;;;;;;1999.90;999.90;;;21.30;99.90;;;;;;5063251;28;20196;-93
2023/08/18 02:23:43;;;;;;;1999.90;999.90;;;21.30;99.90;;;;;;5064060;28;20180;-93
2023/08/18 02:26:09;;;;;;;1999.90;999.90;;;21.20;99.90;;;;;;5063674;28;20204;-94
2023/08/18 02:28:35;;;;;;;1999.90;999.90;;;21.20;99.90;;;;;;5062948;28;20256;-94
2023/08/18 04:39:24;;;;;;;1999.90;999.90;;;19.90;99.90;;;;;;6060582;22;20180;-93
2023/08/18 04:41:49;;;;;;;1999.90;999.90;;;19.80;99.90;;;;;;5036169;28;20220;-92
2023/08/18 04:44:15;;;;;;;1999.90;999.90;;;19.70;99.90;;;;;;5042388;28;20215;-94
2023/08/18 04:46:41;;;;;;;1999.90;999.90;;;19.70;99.90;;;;;;5044234;28;20172;-93
2023/08/18 04:49:06;;;;;;;1999.90;999.90;;;19.70;99.90;;;;;;5043264;28;20193;-93
2023/08/18 04:51:32;;;;;;;1999.90;999.90;;;19.70;99.90;;;;;;5047160;28;20185;-92
2023/08/18 04:53:57;;;;;;;1999.90;999.90;;;19.80;99.90;;;;;;5045073;28;20189;-94
2023/08/18 04:56:23;;;;;;;1999.90;999.90;;;19.90;99.90;;;;;;5053458;28;20185;-95
2023/08/18 04:58:49;;;;;;;1999.90;999.90;;;19.90;99.90;;;;;;5042144;28;20220;-93
2023/08/18 05:01:15;;;;;;;1999.90;999.90;;;19.90;99.90;;;;;;5043390;28;20209;-94
2023/08/18 05:03:40;;;;;;;1999.90;999.90;;;19.90;99.90;;;;;;5042403;28;20166;-93
2023/08/18 05:06:12;;;;;;;1999.90;999.90;;;20.00;99.90;;;;;;5043136;28;20185;-93
2023/08/18 05:08:40;;;;;;;1999.90;999.90;;;19.90;99.90;;;;;;5042838;28;20196;-94
2023/08/18 05:11:07;;;;;;;1999.90;999.90;;;19.90;99.90;;;;;;5042382;28;20177;-92
2023/08/18 05:13:34;;;;;;;1999.90;999.90;;;20.10;99.90;;;;;;5043082;28;20233;-93
2023/08/18 05:16:00;;;;;;;1999.90;999.90;;;20.20;99.90;;;;;;5032597;28;20181;-93
2023/08/18 05:18:29;;;;;;;1999.90;999.90;;;20.30;99.90;;;;;;5025206;28;20221;-93
2023/08/18 05:20:56;;;;;;;1999.90;999.90;;;20.30;99.90;;;;;;5060692;28;20228;-94
2023/08/18 05:23:21;;;;;;;1999.90;999.90;;;20.10;99.90;;;;;;5051498;28;20189;-93
2023/08/18 05:25:48;;;;;;;1999.90;999.90;;;20.20;99.90;;;;;;5044491;28;20200;-94
2023/08/18 05:28:14;;;;;;;1999.90;999.90;;;20.20;99.90;;;;;;5044434;28;20562;-92
2023/08/18 05:30:48;;;;;;;1999.90;999.90;;;20.20;99.90;;;;;;5034411;28;20189;-93
2023/08/18 05:33:14;;;;;;;1999.90;999.90;;;20.20;99.90;;;;;;5029802;28;20178;-93
2023/08/18 05:35:39;;;;;;;1999.90;999.90;;;20.40;99.90;;;;;;5023615;28;20256;-92
2023/08/18 05:38:11;;;;;;;1999.90;999.90;;;20.50;99.90;;;;;;5035344;28;20231;-94
2023/08/18 05:40:48;;;;;;;1999.90;999.90;;;20.50;99.90;;;;;;5047136;28;20219;-95
2023/08/18 05:43:15;;;;;;;1999.90;999.90;;;20.50;99.90;;;;;;5025728;28;20172;-95
2023/08/18 05:45:42;;;;;;;1999.90;999.90;;;20.50;99.90;;;;;;5036120;28;20543;-95
2023/08/18 05:48:08;;;;;;;1999.90;999.90;;;20.30;99.90;;;;;;5017512;28;20177;-93
2023/08/18 05:50:34;;;;;;;1999.90;999.90;;;20.30;99.90;;;;;;5019515;28;20284;-94
2023/08/18 05:53:04;;;;;;;1999.90;999.90;;;20.40;99.90;;;;;;5037239;28;20216;-95
2023/08/18 05:55:32;;;;;;;1999.90;999.90;;;20.50;99.90;;;;;;4973930;28;20233;-94
2023/08/18 05:58:02;;;;;;;1999.90;999.90;;;20.70;99.90;;;;;;5013177;28;20197;-92
2023/08/18 06:00:29;;;;;;;1999.90;999.90;;;20.80;99.90;;;;;;5037429;28;20283;-95
2023/08/18 06:02:59;;;;;;;1999.90;999.90;;;20.70;99.90;;;;;;5035507;28;20534;-95
2023/08/18 06:05:28;;;;;;;1999.90;999.90;;;20.50;99.90;;;;;;5046024;28;20588;-93
2023/08/18 06:07:54;;;;;;;1999.90;999.90;;;20.50;99.90;;;;;;5040021;28;20212;-95
2023/08/18 06:10:20;;;;;;;1999.90;999.90;;;20.90;99.90;;;;;;5027128;28;20235;-94
2023/08/18 06:12:46;;;;;;;1999.90;999.90;;;20.90;99.90;;;;;;5044440;28;20181;-94
2023/08/18 06:15:12;;;;;;;1999.90;999.90;;;20.90;99.90;;;;;;5046604;28;20180;-95
2023/08/18 06:17:38;;;;;;;1999.90;999.90;;;20.90;99.90;;;;;;5045650;28;20185;-95
2023/08/18 06:20:04;;;;;;;1999.90;999.90;;;21.00;99.90;;;;;;5045511;28;20238;-94
2023/08/18 06:22:30;;;;;;;1999.90;999.90;;;21.20;99.90;;;;;;5046122;28;20169;-95
2023/08/18 06:24:56;;;;;;;1999.90;999.90;;;21.30;99.90;;;;;;5047955;28;20197;-94
2023/08/18 06:27:22;;;;;;;1999.90;999.90;;;21.30;99.90;;;;;;5050286;28;20454;-95
2023/08/18 06:29:48;;;;;;;1999.90;999.90;;;21.30;99.90;;;;;;5049951;28;20200;-94
2023/08/18 06:32:17;;;;;;;1999.90;999.90;;;21.40;99.90;;;;;;5050307;28;20204;-94
2023/08/18 06:34:43;;;;;;;1999.90;999.90;;;21.50;99.90;;;;;;5027389;28;20185;-94
2023/08/18 06:37:08;;;;;;;1999.90;999.90;;;21.60;99.90;;;;;;5024496;28;20241;-94
2023/08/18 06:39:34;;;;;;;1999.90;999.90;;;21.70;99.90;;;;;;5025398;28;20198;-96
2023/08/18 06:42:00;;;;;;;1999.90;999.90;;;21.80;99.90;;;;;;5025424;28;20258;-95
2023/08/18 06:44:30;;;;;;;1999.90;999.90;;;21.70;99.90;;;;;;5028630;28;20185;-95
2023/08/18 06:46:55;;;;;;;1999.90;999.90;;;21.70;99.90;;;;;;5007026;28;20185;-95
2023/08/18 06:49:21;;;;;;;1999.90;999.90;;;21.60;99.90;;;;;;5035142;28;20197;-95
2023/08/18 06:51:48;;;;;;;1999.90;999.90;;;21.50;99.90;;;;;;5025914;28;20209;-94
2023/08/18 06:54:14;;;;;;;1999.90;999.90;;;21.40;99.90;;;;;;5027103;28;20196;-95
2023/08/18 06:56:39;;;;;;;1999.90;999.90;;;21.60;99.90;;;;;;5026904;28;20173;-96
2023/08/18 06:59:05;;;;;;;1999.90;999.90;;;22.00;99.90;;;;;;5027428;28;20204;-94
2023/08/18 07:01:31;;;;;;;1999.90;999.90;;;22.10;99.90;;;;;;5043723;28;20217;-95
2023/08/18 07:03:56;;;;;;;1999.90;999.90;;;22.30;99.90;;;;;;5028080;28;20188;-95
2023/08/18 07:06:22;;;;;;;1999.90;999.90;;;22.30;99.90;;;;;;5008268;28;20253;-95
2023/08/18 07:08:48;;;;;;;1999.90;999.90;;;22.20;99.90;;;;;;5007121;28;20681;-96
2023/08/18 07:11:14;;;;;;;1999.90;999.90;;;22.30;99.90;;;;;;5032108;28;20258;-95
2023/08/18 07:13:42;;;;;;;1999.90;999.90;;;22.60;99.90;;;;;;5045504;28;20192;-94
2023/08/18 07:16:08;;;;;;;1999.90;999.90;;;22.50;99.90;;;;;;5027592;28;20211;-95
2023/08/18 07:18:34;;;;;;;1999.90;999.90;;;22.50;99.90;;;;;;5025311;28;20205;-94
2023/08/18 07:20:59;;;;;;;1999.90;999.90;;;22.80;99.90;;;;;;5025219;28;20209;-95
2023/08/18 07:23:26;;;;;;;1999.90;999.90;;;23.00;99.90;;;;;;5025637;28;20205;-94
2023/08/18 07:25:52;;;;;;;1999.90;999.90;;;23.10;99.90;;;;;;5015589;28;20180;-95
2023/08/18 07:28:18;;;;;;;1999.90;999.90;;;23.20;99.90;;;;;;5044482;28;20169;-93
2023/08/18 07:30:47;;;;;;;1999.90;999.90;;;23.30;99.90;;;;;;5043914;28;20192;-95
2023/08/18 07:33:12;;;;;;;1999.90;999.90;;;23.40;99.90;;;;;;5027428;28;20212;-96
2023/08/18 07:35:38;;;;;;;1999.90;999.90;;;23.40;99.90;;;;;;5044878;28;20185;-94
2023/08/18 07:38:04;;;;;;;1999.90;999.90;;;23.60;99.90;;;;;;5027661;28;20203;-94
2023/08/18 07:40:30;;;;;;;1999.90;999.90;;;23.70;99.70;;;;;;5043879;28;20610;-96
2023/08/18 07:42:59;;;;;;;1999.90;999.90;;;23.70;99.70;;;;;;5025351;28;20200;-93
2023/08/18 07:45:26;;;;;;;1999.90;999.90;;;23.80;99.50;;;;;;5043836;28;20223;-94
2023/08/18 07:47:52;;;;;;;1999.90;999.90;;;23.90;98.60;;;;;;5042705;28;20173;-96
2023/08/18 07:50:19;;;;;;;1999.90;999.90;;;24.00;98.50;;;;;;5044142;28;20208;-95
2023/08/18 07:52:45;;;;;;;1999.90;999.90;;;23.90;98.00;;;;;;5043837;28;20203;-94
2023/08/18 07:55:11;;;;;;;1999.90;999.90;;;23.90;98.40;;;;;;5042309;28;20249;-94
2023/08/18 07:57:37;;;;;;;1999.90;999.90;;;24.20;97.60;;;;;;5027670;28;20185;-94
2023/08/18 08:00:16;;;;;;;1999.90;999.90;;;24.40;95.70;;;;;;5026622;28;20224;-94
2023/08/18 08:02:45;;;;;;;1999.90;999.90;;;24.30;94.60;;;;;;5044755;28;20164;-93
2023/08/18 08:05:17;;;;;;;1999.90;999.90;;;24.40;92.80;;;;;;5034019;28;20177;-95
2023/08/18 08:07:43;;;;;;;1999.90;999.90;;;24.40;92.70;;;;;;5019282;28;20286;-96
2023/08/18 08:10:09;;;;;;;1999.90;999.90;;;24.50;92.90;;;;;;5018779;28;20285;-94
2023/08/18 08:12:38;;;;;;;1999.90;999.90;;;24.60;91.10;;;;;;5035808;28;20205;-91
2023/08/18 08:15:04;;;;;;;1999.90;999.90;;;24.50;91.50;;;;;;5036196;28;20189;-95
2023/08/18 08:17:33;;;;;;;1999.90;999.90;;;24.80;89.10;;;;;;5019395;28;20161;-96
2023/08/18 08:20:03;;;;;;;1999.90;999.90;;;25.20;87.70;;;;;;5019129;28;20210;-96
2023/08/18 08:22:29;;;;;;;1999.90;999.90;;;25.30;87.30;;;;;;5036220;28;20200;-96
2023/08/18 08:24:55;;;;;;;1999.90;999.90;;;25.20;87.50;;;;;;5039988;28;20174;-96
2023/08/18 08:27:21;;;;;;;1999.90;999.90;;;25.10;86.00;;;;;;5035150;28;20174;-95
2023/08/18 08:29:47;;;;;;;1999.90;999.90;;;25.50;86.40;;;;;;5010029;28;20246;-94
2023/08/18 08:32:12;;;;;;;1999.90;999.90;;;25.60;85.30;;;;;;5039708;28;20177;-95
2023/08/18 08:34:41;;;;;;;1999.90;999.90;;;25.70;85.70;;;;;;5026974;28;20193;-94
2023/08/18 08:37:07;;;;;;;1999.90;999.90;;;25.90;82.50;;;;;;5022909;28;20185;-96
2023/08/18 08:39:33;;;;;;;1999.90;999.90;;;26.00;83.30;;;;;;5027396;28;20235;-95
2023/08/18 08:41:59;;;;;;;1999.90;999.90;;;26.20;80.30;;;;;;5028406;28;20250;-96
2023/08/18 08:44:25;;;;;;;1999.90;999.90;;;26.10;81.00;;;;;;5028114;28;20173;-95
2023/08/18 08:46:52;;;;;;;1999.90;999.90;;;26.10;79.60;;;;;;5044393;28;20172;-94
2023/08/18 08:49:20;;;;;;;1999.90;999.90;;;26.00;78.80;;;;;;5021276;28;20228;-95
2023/08/18 08:51:50;;;;;;;1999.90;999.90;;;25.60;79.00;;;;;;5018252;28;20224;-95
2023/08/18 08:54:21;;;;;;;1999.90;999.90;;;25.80;77.70;;;;;;5027457;28;20205;-94
2023/08/18 08:56:49;;;;;;;1999.90;999.90;;;25.80;77.10;;;;;;5046018;28;20165;-95
2023/08/18 08:59:16;;;;;;;1999.90;999.90;;;25.80;76.90;;;;;;5029338;28;20199;-95
2023/08/18 09:01:41;;;;;;;1999.90;999.90;;;25.90;77.10;;;;;;5046595;28;20216;-94
2023/08/18 09:04:08;;;;;;;1999.90;999.90;;;26.30;78.30;;;;;;5046020;28;20196;-96
2023/08/18 09:06:34;;;;;;;1999.90;999.90;;;26.70;71.20;;;;;;5049411;28;20189;-95
2023/08/18 09:09:00;;;;;;;1999.90;999.90;;;26.50;71.10;;;;;;5036868;28;20181;-95
2023/08/18 09:11:44;;;;;;;1999.90;999.90;;;26.30;71.50;;;;;;5036869;28;20189;-96
2023/08/18 09:14:09;;;;;;;1999.90;999.90;;;26.60;69.60;;;;;;5031629;28;20198;-95
2023/08/18 09:16:35;;;;;;;1999.90;999.90;;;26.70;69.80;;;;;;5029364;28;20197;-95
2023/08/18 09:19:01;;;;;;;1999.90;999.90;;;26.80;69.60;;;;;;5010561;28;20264;-94
2023/08/18 09:21:27;;;;;;;1999.90;999.90;;;27.20;69.30;;;;;;5028250;28;20202;-95
2023/08/18 09:23:56;;;;;;;1999.90;999.90;;;26.90;69.30;;;;;;5027527;28;20186;-95
2023/08/18 09:26:24;;;;;;;1999.90;999.90;;;27.40;68.20;;;;;;5021078;28;20566;-95
2023/08/18 09:28:50;;;;;;;1999.90;999.90;;;27.60;66.90;;;;;;5044336;28;20196;-95
2023/08/18 09:31:16;;;;;;;1999.90;999.90;;;27.80;66.10;;;;;;5046572;28;20558;-95
2023/08/18 09:33:42;;;;;;;1999.90;999.90;;;27.50;67.80;;;;;;5045687;28;20172;-95
2023/08/18 09:36:12;;;;;;;1999.90;999.90;;;27.40;69.50;;;;;;5024607;28;20444;-94
2023/08/18 09:38:41;;;;;;;1999.90;999.90;;;27.30;68.50;;;;;;5027746;28;20219;-94
2023/08/18 09:41:08;;;;;;;1999.90;999.90;;;27.60;67.30;;;;;;5027187;28;20205;-93
2023/08/18 09:43:35;;;;;;;1999.90;999.90;;;27.90;64.70;;;;;;5036105;28;20524;-93
2023/08/18 09:46:04;;;;;;;1999.90;999.90;;;27.60;66.60;;;;;;5046734;28;20613;-95
2023/08/18 09:48:39;;;;;;;1999.90;999.90;;;28.00;65.60;;;;;;5048178;28;20185;-95
2023/08/18 09:51:11;;;;;;;1999.90;999.90;;;28.00;65.90;;;;;;5031322;28;20172;-94
2023/08/18 09:53:41;;;;;;;1999.90;999.90;;;28.20;65.40;;;;;;5039409;28;20202;-95
2023/08/18 09:56:13;;;;;;;1999.90;999.90;;;28.30;64.60;;;;;;5042534;28;20189;-95
2023/08/18 09:58:57;;;;;;;1999.90;999.90;;;28.10;66.20;;;;;;5015250;28;20229;-94
2023/08/18 10:01:27;;;;;;;1999.90;999.90;;;28.20;66.30;;;;;;5014332;28;20284;-94
2023/08/18 10:03:54;;;;;;;1999.90;999.90;;;28.40;64.70;;;;;;5035044;28;20197;-94
2023/08/18 10:06:21;;;;;;;1999.90;999.90;;;28.50;64.80;;;;;;5032804;28;20192;-95
2023/08/18 10:08:47;;;;;;;1999.90;999.90;;;28.40;65.10;;;;;;5037495;28;20933;-94
2023/08/18 10:11:14;;;;;;;1999.90;999.90;;;28.80;64.20;;;;;;5039752;28;20253;-95
2023/08/18 10:13:40;;;;;;;1999.90;999.90;;;28.60;62.00;;;;;;5039492;28;20218;-95
2023/08/18 10:16:06;;;;;;;1999.90;999.90;;;28.70;63.00;;;;;;5039733;28;20215;-91
2023/08/18 10:18:32;;;;;;;1999.90;999.90;;;28.70;62.40;;;;;;5042211;28;20185;-95
2023/08/18 10:20:59;;;;;;;1999.90;999.90;;;29.00;60.40;;;;;;5040610;28;20224;-94
2023/08/18 10:23:29;;;;;;;1999.90;999.90;;;29.00;62.00;;;;;;5040258;28;20196;-94
2023/08/18 10:25:55;;;;;;;1999.90;999.90;;;29.00;62.40;;;;;;5021817;28;20238;-94
2023/08/18 10:28:22;;;;;;;1999.90;999.90;;;29.00;61.60;;;;;;5046355;28;20208;-96
2023/08/18 10:31:10;;;;;;;1999.90;999.90;;;29.20;61.30;;;;;;5028949;28;20187;-95
2023/08/18 10:33:45;;;;;;;1999.90;999.90;;;29.20;60.80;;;;;;5047375;28;20189;-96
2023/08/18 10:36:16;;;;;;;1999.90;999.90;;;29.60;59.20;;;;;;5035880;28;20200;-96
2023/08/18 10:38:43;;;;;;;1999.90;999.90;;;30.10;60.00;;;;;;5030208;28;20205;-95
2023/08/18 10:41:10;;;;;;;1999.90;999.90;;;29.80;58.90;;;;;;5011274;28;20302;-96
2023/08/18 10:43:51;;;;;;;1999.90;999.90;;;30.10;58.50;;;;;;5032183;28;20185;-96
2023/08/18 10:46:17;;;;;;;1999.90;999.90;;;30.30;58.20;;;;;;5013090;28;20615;-96
2023/08/18 10:48:45;;;;;;;1999.90;999.90;;;30.50;58.10;;;;;;5031124;28;20208;-95
2023/08/18 10:51:10;;;;;;;1999.90;999.90;;;30.60;58.30;;;;;;5024969;28;20185;-91
2023/08/18 10:53:38;;;;;;;1999.90;999.90;;;31.10;57.20;;;;;;5028405;28;20193;-90
2023/08/18 10:56:04;;;;;;;1999.90;999.90;;;30.90;55.70;;;;;;5033465;28;20251;-95
2023/08/18 10:58:31;;;;;;;1999.90;999.90;;;31.30;54.90;;;;;;5025506;28;20204;-93
2023/08/18 11:00:57;;;;;;;1999.90;999.90;;;31.80;53.30;;;;;;5039167;28;20262;-91
2023/08/18 11:03:25;;;;;;;1999.90;999.90;;;31.80;51.50;;;;;;5031384;28;20204;-91
2023/08/18 11:05:51;;;;;;;1999.90;999.90;;;31.90;53.60;;;;;;5022948;28;20638;-91
2023/08/18 11:08:18;;;;;;;1999.90;999.90;;;32.60;53.10;;;;;;5022617;28;20181;-93
2023/08/18 11:10:44;;;;;;;1999.90;999.90;;;32.30;50.70;;;;;;5018809;28;20177;-91
2023/08/18 11:13:26;;;;;;;1999.90;999.90;;;31.60;52.30;;;;;;5042298;28;20307;-92
2023/08/18 11:15:53;;;;;;;1999.90;999.90;;;31.80;51.30;;;;;;5043760;28;20173;-90
2023/08/18 11:18:21;;;;;;;1999.90;999.90;;;31.90;52.50;;;;;;5044615;28;20183;-93
2023/08/18 11:20:51;;;;;;;1999.90;999.90;;;31.50;54.20;;;;;;5044612;28;20209;-88
2023/08/18 11:23:17;;;;;;;1999.90;999.90;;;31.30;54.70;;;;;;5040169;28;20325;-92
2023/08/18 11:25:43;;;;;;;1999.90;999.90;;;31.90;52.50;;;;;;5028790;28;20352;-91
2023/08/18 11:28:09;;;;;;;1999.90;999.90;;;32.20;51.70;;;;;;5024762;28;20201;-89
2023/08/18 11:30:35;;;;;;;1999.90;999.90;;;32.70;51.10;;;;;;5029076;28;20204;-91
2023/08/18 11:33:00;;;;;;;1999.90;999.90;;;32.50;50.70;;;;;;5038983;28;20192;-90
2023/08/18 11:35:26;;;;;;;1999.90;999.90;;;32.90;49.20;;;;;;5041184;28;20307;-90
2023/08/18 11:37:55;;;;;;;1999.90;999.90;;;32.80;48.50;;;;;;5041870;28;20176;-90
2023/08/18 11:40:23;;;;;;;1999.90;999.90;;;32.40;49.10;;;;;;5040695;28;20292;-95
2023/08/18 11:42:50;;;;;;;1999.90;999.90;;;32.50;50.70;;;;;;5023764;28;20192;-91
2023/08/18 11:45:19;;;;;;;1999.90;999.90;;;33.00;49.00;;;;;;5041434;28;20161;-90
2023/08/18 11:47:59;;;;;;;1999.90;999.90;;;33.30;49.00;;;;;;5041866;28;20184;-91
2023/08/18 11:50:39;;;;;;;1999.90;999.90;;;33.00;48.60;;;;;;5043072;28;20682;-91
2023/08/18 11:53:07;;;;;;;1999.90;999.90;;;33.00;49.30;;;;;;5054754;28;20202;-92
2023/08/18 11:55:39;;;;;;;1999.90;999.90;;;33.50;47.80;;;;;;5043612;28;20188;-90
2023/08/18 11:58:10;;;;;;;1999.90;999.90;;;33.50;46.00;;;;;;5027252;28;20184;-92
2023/08/18 12:00:38;;;;;;;1999.90;999.90;;;33.30;47.60;;;;;;5047287;28;20223;-91
2023/08/18 12:03:06;;;;;;;1999.90;999.90;;;33.30;46.30;;;;;;5016638;28;20264;-89
2023/08/18 12:05:36;;;;;;;1999.90;999.90;;;34.20;45.20;;;;;;5025391;28;20193;-91
2023/08/18 12:08:09;;;;;;;1999.90;999.90;;;34.20;45.30;;;;;;5008586;28;20188;-90
2023/08/18 12:10:35;;;;;;;1999.90;999.90;;;33.90;44.70;;;;;;5026356;28;20201;-91
2023/08/18 12:13:00;;;;;;;1999.90;999.90;;;33.80;43.00;;;;;;5028724;28;20247;-91
2023/08/18 12:15:26;;;;;;;1999.90;999.90;;;33.30;46.00;;;;;;5025088;28;20197;-90
2023/08/18 12:17:53;;;;;;;1999.90;999.90;;;33.60;44.00;;;;;;5007485;28;20440;-90
2023/08/18 12:20:19;;;;;;;1999.90;999.90;;;34.40;42.90;;;;;;5024548;28;20212;-91
2023/08/18 12:22:46;;;;;;;1999.90;999.90;;;33.90;43.20;;;;;;5039013;28;20180;-91
2023/08/18 12:25:12;;;;;;;1999.90;999.90;;;34.00;43.70;;;;;;5048014;28;20185;-86
2023/08/18 12:27:38;;;;;;;1999.90;999.90;;;34.00;42.50;;;;;;5043693;28;20185;-92
2023/08/18 12:30:05;;;;;;;1999.90;999.90;;;34.00;43.10;;;;;;5044293;28;20269;-92
2023/08/18 12:32:32;;;;;;;1999.90;999.90;;;34.00;43.30;;;;;;5047098;28;20189;-92
2023/08/18 12:34:58;;;;;;;1999.90;999.90;;;33.90;43.30;;;;;;5043990;28;20185;-93
2023/08/18 12:37:24;;;;;;;1999.90;999.90;;;34.20;42.30;;;;;;5045547;28;20180;-93
2023/08/18 12:39:50;;;;;;;1999.90;999.90;;;34.20;42.70;;;;;;5047559;28;20244;-92
2023/08/18 12:42:16;;;;;;;1999.90;999.90;;;34.50;41.00;;;;;;5053553;28;20678;-93
2023/08/18 12:44:42;;;;;;;1999.90;999.90;;;34.70;41.00;;;;;;5047885;28;20183;-92
2023/08/18 12:47:08;;;;;;;1999.90;999.90;;;34.80;40.60;;;;;;5045414;28;20172;-92
2023/08/18 12:49:34;;;;;;;1999.90;999.90;;;35.50;38.20;;;;;;5027038;28;20200;-88
2023/08/18 12:51:59;;;;;;;1999.90;999.90;;;35.90;38.90;;;;;;5042508;28;20172;-89
2023/08/18 12:54:28;;;;;;;1999.90;999.90;;;35.40;38.80;;;;;;5042515;28;20729;-90
2023/08/18 12:56:54;;;;;;;1999.90;999.90;;;35.30;39.20;;;;;;5040776;28;20188;-90
2023/08/18 12:59:21;;;;;;;1999.90;999.90;;;35.20;39.10;;;;;;5040017;28;20222;-88
2023/08/18 13:01:47;;;;;;;1999.90;999.90;;;35.00;40.50;;;;;;5039160;28;20215;-90
2023/08/18 13:04:13;;;;;;;1999.90;999.90;;;35.30;39.40;;;;;;5040571;28;20191;-90
2023/08/18 13:06:38;;;;;;;1999.90;999.90;;;35.70;38.80;;;;;;5041988;28;20200;-90
2023/08/18 13:09:04;;;;;;;1999.90;999.90;;;36.60;38.10;;;;;;5044336;28;20260;-91
2023/08/18 13:11:33;;;;;;;1999.90;999.90;;;37.00;37.60;;;;;;5042140;28;20177;-90
2023/08/18 13:13:59;;;;;;;1999.90;999.90;;;36.50;37.80;;;;;;5041092;28;20196;-90
2023/08/18 13:16:26;;;;;;;1999.90;999.90;;;36.60;37.40;;;;;;5023663;28;20184;-89
2023/08/18 13:18:51;;;;;;;1999.90;999.90;;;35.90;38.60;;;;;;5041417;28;20203;-91
2023/08/18 13:21:17;;;;;;;1999.90;999.90;;;35.50;38.90;;;;;;5042210;28;20207;-90
2023/08/18 13:23:43;;;;;;;1999.90;999.90;;;35.30;38.80;;;;;;5043101;28;20176;-90
2023/08/18 13:26:08;;;;;;;1999.90;999.90;;;35.90;37.40;;;;;;5040340;28;20184;-90
2023/08/18 13:28:34;;;;;;;1999.90;999.90;;;36.50;37.60;;;;;;5040537;28;20206;-91
2023/08/18 13:30:59;;;;;;;1999.90;999.90;;;36.00;37.60;;;;;;5040862;28;20576;-91
2023/08/18 13:33:25;;;;;;;1999.90;999.90;;;36.30;36.90;;;;;;5041579;28;20194;-91
2023/08/18 13:35:51;;;;;;;1999.90;999.90;;;36.50;36.80;;;;;;5036193;28;20176;-92
2023/08/18 13:38:17;;;;;;;1999.90;999.90;;;36.70;35.50;;;;;;5041519;28;20181;-92
2023/08/18 13:40:42;;;;;;;1999.90;999.90;;;35.80;36.80;;;;;;5046457;28;20208;-92
2023/08/18 13:43:09;;;;;;;1999.90;999.90;;;36.00;37.50;;;;;;5043376;28;20179;-91
2023/08/18 13:45:35;;;;;;;1999.90;999.90;;;36.20;37.00;;;;;;5047203;28;20250;-92
2023/08/18 13:48:00;;;;;;;1999.90;999.90;;;36.40;37.30;;;;;;5047055;28;20268;-93
2023/08/18 13:50:26;;;;;;;1999.90;999.90;;;37.50;35.40;;;;;;5043151;28;20204;-92
2023/08/18 13:52:52;;;;;;;1999.90;999.90;;;37.90;34.40;;;;;;5046642;28;20177;-92
2023/08/18 13:55:17;;;;;;;1999.90;999.90;;;37.50;34.60;;;;;;5042877;28;20267;-92
2023/08/18 13:57:43;;;;;;;1999.90;999.90;;;38.10;34.10;;;;;;5028866;28;20189;-93
2023/08/18 14:00:09;;;;;;;1999.90;999.90;;;37.50;35.00;;;;;;5039896;28;20207;-91
2023/08/18 14:02:35;;;;;;;1999.90;999.90;;;37.70;35.20;;;;;;5023406;28;20176;-89
2023/08/18 14:05:04;;;;;;;1999.90;999.90;;;37.20;34.60;;;;;;5041776;28;20184;-92
2023/08/18 14:07:30;;;;;;;1999.90;999.90;;;36.80;35.40;;;;;;5042242;28;20172;-93
2023/08/18 14:09:59;;;;;;;1999.90;999.90;;;37.80;34.40;;;;;;5024397;28;20270;-91
2023/08/18 14:12:25;;;;;;;1999.90;999.90;;;38.00;33.80;;;;;;5040939;28;20675;-93
2023/08/18 14:14:52;;;;;;;1999.90;999.90;;;37.90;34.20;;;;;;5041580;28;20180;-93
2023/08/18 14:17:41;;;;;;;1999.90;999.90;;;37.60;33.70;;;;;;5041273;28;20546;-92
2023/08/18 14:20:12;;;;;;;1999.90;999.90;;;38.70;32.90;;;;;;5040825;28;20316;-92
2023/08/18 14:22:41;;;;;;;1999.90;999.90;;;38.00;34.00;;;;;;5039742;28;20263;-92
2023/08/18 14:25:08;;;;;;;1999.90;999.90;;;37.80;33.70;;;;;;5040295;28;20199;-92
2023/08/18 14:27:33;;;;;;;1999.90;999.90;;;37.60;34.00;;;;;;5043836;28;20228;-95
2023/08/18 14:29:59;;;;;;;1999.90;999.90;;;37.00;35.40;;;;;;5044571;28;20200;-91
2023/08/18 14:32:26;;;;;;;1999.90;999.90;;;37.20;35.20;;;;;;5012136;28;20181;-94
2023/08/18 14:34:55;;;;;;;1999.90;999.90;;;37.40;34.50;;;;;;5003355;28;20212;-90
2023/08/18 14:37:22;;;;;;;1999.90;999.90;;;38.20;34.00;;;;;;5036750;28;20172;-90
2023/08/18 14:39:48;;;;;;;1999.90;999.90;;;39.30;32.70;;;;;;5041396;28;20197;-94
2023/08/18 14:42:14;;;;;;;1999.90;999.90;;;39.10;31.70;;;;;;5045414;28;20191;-92
2023/08/18 14:44:39;;;;;;;1999.90;999.90;;;39.00;31.80;;;;;;5041696;28;20182;-91
2023/08/18 14:47:05;;;;;;;1999.90;999.90;;;38.90;30.80;;;;;;5005783;28;20180;-92
2023/08/18 14:49:32;;;;;;;1999.90;999.90;;;38.90;31.90;;;;;;5020763;28;20188;-92
2023/08/18 14:51:57;;;;;;;1999.90;999.90;;;39.70;31.40;;;;;;5025407;28;20188;-94
2023/08/18 14:54:24;;;;;;;1999.90;999.90;;;39.10;31.70;;;;;;5035852;28;20187;-92
2023/08/18 14:56:50;;;;;;;1999.90;999.90;;;38.90;32.20;;;;;;5047422;28;20180;-94
2023/08/18 14:59:18;;;;;;;1999.90;999.90;;;38.30;32.50;;;;;;5044386;28;20211;-93
2023/08/18 15:01:44;;;;;;;1999.90;999.90;;;38.20;33.30;;;;;;5044959;28;20208;-94
2023/08/18 15:04:10;;;;;;;1999.90;999.90;;;38.40;33.20;;;;;;5034195;28;20183;-93
2023/08/18 15:06:36;;;;;;;1999.90;999.90;;;38.60;32.90;;;;;;5042841;28;20177;-93
2023/08/18 15:09:02;;;;;;;1999.90;999.90;;;38.70;32.10;;;;;;5028143;28;20192;-90
2023/08/18 15:11:27;;;;;;;1999.90;999.90;;;38.70;32.40;;;;;;5038036;28;20234;-89
2023/08/18 15:13:53;;;;;;;1999.90;999.90;;;38.80;32.10;;;;;;5032029;28;20192;-90
2023/08/18 15:16:27;;;;;;;1999.90;999.90;;;38.60;31.80;;;;;;5042654;28;20184;-92
2023/08/18 15:19:02;;;;;;;1999.90;999.90;;;38.50;31.60;;;;;;5031997;28;20207;-93
2023/08/18 15:21:28;;;;;;;1999.90;999.90;;;38.50;31.60;;;;;;5050522;28;20195;-93
2023/08/18 15:23:58;;;;;;;1999.90;999.90;;;38.80;32.40;;;;;;5012939;28;20191;-90
2023/08/18 15:26:24;;;;;;;1999.90;999.90;;;39.20;32.40;;;;;;5049997;28;20511;-90
2023/08/18 15:28:53;;;;;;;1999.90;999.90;;;39.20;31.90;;;;;;5052827;28;20204;-92
2023/08/18 15:31:22;;;;;;;1999.90;999.90;;;39.00;31.40;;;;;;5029438;28;20638;-92
2023/08/18 15:34:02;;;;;;;1999.90;999.90;;;38.90;30.90;;;;;;5046896;28;20229;-94
2023/08/18 15:36:36;;;;;;;1999.90;999.90;;;38.80;30.50;;;;;;5031108;28;20184;-92
2023/08/18 15:39:04;;;;;;;1999.90;999.90;;;38.90;30.50;;;;;;5047459;28;20211;-94
2023/08/18 15:41:40;;;;;;;1999.90;999.90;;;38.80;30.40;;;;;;5029501;28;20275;-91
2023/08/18 15:44:07;;;;;;;1999.90;999.90;;;38.70;31.10;;;;;;5015047;28;20176;-93